McLane, Pennsylvania
Current Conditions -  °F | °C
As of 11:51 AM on Saturday 25 Oct 2014 (Local Time) from KERI Reporting Station
Broken Clouds Broken Clouds  
Wind Chill: 62°   Ceiling: 6500
Heat Index: 62°   Visibility: 10mi
Dew Point: 47°   Wind: 14mph
Humidity: 58%   Direction: 210°SSW
Pressure: 29.77"   Gusts: 24mph
Location:  41.9793°N, 80.1405°W
Report Text: KERI 251551Z 21012G21KT 10SM BKN065 17/08 A2977 RMK AO2 SLP080 T01670083
Loading
Personal Weather Stations






























Interactive Weather Map
Tropical Storm Tracking
New forecast layout! Learn more

10-Day Weather Forecast

Advertisements
Track Severe Weather on mobile